sensor_id;sensor_type;location;lat;lon;timestamp;pressure;altitude;pressure_sealevel;temperature;humidity
79707;BME280;69200;53.612;-2.416;2023-05-07T00:00:58;99591.56;;;13.02;85.29
79707;BME280;69200;53.612;-2.416;2023-05-07T00:03:25;99592.88;;;12.99;85.31
79707;BME280;69200;53.612;-2.416;2023-05-07T00:05:51;99593.47;;;13.01;84.94
79707;BME280;69200;53.612;-2.416;2023-05-07T00:08:18;99593.47;;;13.06;85.50
79707;BME280;69200;53.612;-2.416;2023-05-07T00:10:43;99594.06;;;13.13;85.14
79707;BME280;69200;53.612;-2.416;2023-05-07T00:13:09;99597.88;;;13.12;85.52
79707;BME280;69200;53.612;-2.416;2023-05-07T00:15:35;99597.88;;;13.12;85.14
79707;BME280;69200;53.612;-2.416;2023-05-07T00:18:00;99599.00;;;13.16;84.81
79707;BME280;69200;53.612;-2.416;2023-05-07T00:20:25;99591.91;;;13.15;85.35
79707;BME280;69200;53.612;-2.416;2023-05-07T00:22:51;99598.44;;;13.14;85.04
79707;BME280;69200;53.612;-2.416;2023-05-07T00:25:16;99588.34;;;13.10;84.76
79707;BME280;69200;53.612;-2.416;2023-05-07T00:27:42;99590.25;;;13.09;85.13
79707;BME280;69200;53.612;-2.416;2023-05-07T00:30:08;99597.06;;;13.12;84.59
79707;BME280;69200;53.612;-2.416;2023-05-07T00:32:33;99595.78;;;13.20;84.74
79707;BME280;69200;53.612;-2.416;2023-05-07T00:34:59;99597.31;;;13.10;84.91
79707;BME280;69200;53.612;-2.416;2023-05-07T00:37:24;99600.66;;;13.18;85.07
79707;BME280;69200;53.612;-2.416;2023-05-07T00:39:50;99599.75;;;13.07;84.75
79707;BME280;69200;53.612;-2.416;2023-05-07T00:42:15;99604.91;;;13.03;85.42
79707;BME280;69200;53.612;-2.416;2023-05-07T00:44:41;99597.00;;;13.07;85.01
79707;BME280;69200;53.612;-2.416;2023-05-07T00:47:06;99600.22;;;12.99;85.52
79707;BME280;69200;53.612;-2.416;2023-05-07T00:49:44;99602.41;;;12.97;85.42
79707;BME280;69200;53.612;-2.416;2023-05-07T00:52:14;99597.78;;;12.97;85.45
79707;BME280;69200;53.612;-2.416;2023-05-07T00:54:41;99599.41;;;12.93;85.62
79707;BME280;69200;53.612;-2.416;2023-05-07T00:57:06;99592.59;;;12.96;85.17
79707;BME280;69200;53.612;-2.416;2023-05-07T00:59:33;99594.50;;;12.95;84.88
79707;BME280;69200;53.612;-2.416;2023-05-07T01:02:00;99604.63;;;13.00;85.02
79707;BME280;69200;53.612;-2.416;2023-05-07T01:04:26;99607.84;;;12.97;85.31
79707;BME280;69200;53.612;-2.416;2023-05-07T01:06:52;99604.88;;;12.98;85.38
79707;BME280;69200;53.612;-2.416;2023-05-07T01:09:19;99603.78;;;12.99;85.38
79707;BME280;69200;53.612;-2.416;2023-05-07T01:11:45;99603.75;;;12.94;85.79
79707;BME280;69200;53.612;-2.416;2023-05-07T01:14:11;99604.09;;;13.03;85.42
79707;BME280;69200;53.612;-2.416;2023-05-07T01:16:37;99612.44;;;12.91;85.86
79707;BME280;69200;53.612;-2.416;2023-05-07T01:19:02;99607.31;;;12.95;85.74
79707;BME280;69200;53.612;-2.416;2023-05-07T01:21:32;99607.25;;;12.89;85.80
79707;BME280;69200;53.612;-2.416;2023-05-07T01:23:58;99614.06;;;12.87;85.67
79707;BME280;69200;53.612;-2.416;2023-05-07T01:26:24;99609.97;;;12.89;85.80
79707;BME280;69200;53.612;-2.416;2023-05-07T01:28:49;99612.97;;;12.88;85.95
79707;BME280;69200;53.612;-2.416;2023-05-07T01:31:16;99616.78;;;12.87;86.11
79707;BME280;69200;53.612;-2.416;2023-05-07T01:33:42;99623.03;;;12.87;85.83
79707;BME280;69200;53.612;-2.416;2023-05-07T01:36:11;99621.84;;;12.73;86.38
79707;BME280;69200;53.612;-2.416;2023-05-07T01:38:37;99623.25;;;12.81;86.41
79707;BME280;69200;53.612;-2.416;2023-05-07T01:41:03;99622.44;;;12.80;86.28
79707;BME280;69200;53.612;-2.416;2023-05-07T01:43:29;99619.16;;;12.78;86.77
79707;BME280;69200;53.612;-2.416;2023-05-07T01:45:55;99622.66;;;12.74;86.23
79707;BME280;69200;53.612;-2.416;2023-05-07T01:48:22;99628.41;;;12.77;86.34
79707;BME280;69200;53.612;-2.416;2023-05-07T01:50:48;99629.44;;;12.71;86.04
79707;BME280;69200;53.612;-2.416;2023-05-07T01:53:14;99633.03;;;12.77;86.32
79707;BME280;69200;53.612;-2.416;2023-05-07T01:55:40;99631.91;;;12.73;85.94
79707;BME280;69200;53.612;-2.416;2023-05-07T01:58:05;99630.13;;;12.88;85.63
79707;BME280;69200;53.612;-2.416;2023-05-07T02:00:31;99634.19;;;12.86;85.04
79707;BME280;69200;53.612;-2.416;2023-05-07T02:02:57;99641.84;;;12.89;84.97
79707;BME280;69200;53.612;-2.416;2023-05-07T02:05:22;99636.81;;;12.71;85.59
79707;BME280;69200;53.612;-2.416;2023-05-07T02:07:48;99642.72;;;12.63;86.42
79707;BME280;69200;53.612;-2.416;2023-05-07T02:10:13;99648.78;;;12.70;85.78
79707;BME280;69200;53.612;-2.416;2023-05-07T02:12:38;99642.16;;;12.60;85.60
79707;BME280;69200;53.612;-2.416;2023-05-07T02:15:04;99646.53;;;12.62;86.17
79707;BME280;69200;53.612;-2.416;2023-05-07T02:17:30;99645.19;;;12.64;86.04
79707;BME280;69200;53.612;-2.416;2023-05-07T02:19:58;99647.91;;;12.64;86.21
79707;BME280;69200;53.612;-2.416;2023-05-07T02:22:23;99655.78;;;12.60;86.34
79707;BME280;69200;53.612;-2.416;2023-05-07T02:24:48;99656.41;;;12.73;85.86
79707;BME280;69200;53.612;-2.416;2023-05-07T02:27:14;99653.88;;;12.61;86.34
79707;BME280;69200;53.612;-2.416;2023-05-07T02:29:39;99657.97;;;12.64;86.15
79707;BME280;69200;53.612;-2.416;2023-05-07T02:32:05;99658.84;;;12.69;85.85
79707;BME280;69200;53.612;-2.416;2023-05-07T02:34:30;99665.59;;;12.67;85.52
79707;BME280;69200;53.612;-2.416;2023-05-07T02:36:55;99662.53;;;12.58;86.30
79707;BME280;69200;53.612;-2.416;2023-05-07T02:39:21;99663.88;;;12.55;86.19
79707;BME280;69200;53.612;-2.416;2023-05-07T02:41:46;99663.22;;;12.70;85.72
79707;BME280;69200;53.612;-2.416;2023-05-07T02:44:12;99662.34;;;12.65;85.54
79707;BME280;69200;53.612;-2.416;2023-05-07T02:46:37;99665.50;;;12.51;86.08
79707;BME280;69200;53.612;-2.416;2023-05-07T02:49:02;99670.56;;;12.43;86.70
79707;BME280;69200;53.612;-2.416;2023-05-07T02:51:30;99667.38;;;12.51;86.39
79707;BME280;69200;53.612;-2.416;2023-05-07T02:53:55;99677.03;;;12.37;86.32
79707;BME280;69200;53.612;-2.416;2023-05-07T02:56:21;99673.06;;;12.49;86.23
79707;BME280;69200;53.612;-2.416;2023-05-07T02:58:46;99681.75;;;12.46;85.76
79707;BME280;69200;53.612;-2.416;2023-05-07T03:01:12;99682.06;;;12.50;86.05
79707;BME280;69200;53.612;-2.416;2023-05-07T03:03:39;99683.09;;;12.44;86.44
79707;BME280;69200;53.612;-2.416;2023-05-07T03:06:05;99685.56;;;12.45;86.69
79707;BME280;69200;53.612;-2.416;2023-05-07T03:08:30;99692.09;;;12.44;86.68
79707;BME280;69200;53.612;-2.416;2023-05-07T03:10:56;99683.47;;;12.52;86.34
79707;BME280;69200;53.612;-2.416;2023-05-07T03:13:21;99699.28;;;12.55;85.70
79707;BME280;69200;53.612;-2.416;2023-05-07T03:15:47;99701.72;;;12.57;85.83
79707;BME280;69200;53.612;-2.416;2023-05-07T03:18:12;99696.19;;;12.47;85.81
79707;BME280;69200;53.612;-2.416;2023-05-07T03:20:37;99698.72;;;12.53;85.99
79707;BME280;69200;53.612;-2.416;2023-05-07T03:23:03;99697.69;;;12.59;85.73
79707;BME280;69200;53.612;-2.416;2023-05-07T03:25:28;99701.00;;;12.67;85.20
79707;BME280;69200;53.612;-2.416;2023-05-07T03:27:55;99705.16;;;12.47;86.26
79707;BME280;69200;53.612;-2.416;2023-05-07T03:30:21;99712.72;;;12.40;86.43
79707;BME280;69200;53.612;-2.416;2023-05-07T03:32:46;99701.75;;;12.35;86.34
79707;BME280;69200;53.612;-2.416;2023-05-07T03:35:12;99705.06;;;12.37;86.41
79707;BME280;69200;53.612;-2.416;2023-05-07T03:37:38;99710.19;;;12.33;86.22
79707;BME280;69200;53.612;-2.416;2023-05-07T03:40:04;99714.50;;;12.29;86.27
79707;BME280;69200;53.612;-2.416;2023-05-07T03:42:30;99712.16;;;12.38;85.64
79707;BME280;69200;53.612;-2.416;2023-05-07T03:44:55;99713.34;;;12.47;85.63
79707;BME280;69200;53.612;-2.416;2023-05-07T03:47:21;99708.81;;;12.31;85.94
79707;BME280;69200;53.612;-2.416;2023-05-07T03:49:46;99708.81;;;12.31;85.95
79707;BME280;69200;53.612;-2.416;2023-05-07T03:52:11;99713.94;;;12.27;85.77
79707;BME280;69200;53.612;-2.416;2023-05-07T03:54:37;99721.41;;;12.37;85.96
79707;BME280;69200;53.612;-2.416;2023-05-07T03:57:02;99717.91;;;12.42;85.93
79707;BME280;69200;53.612;-2.416;2023-05-07T03:59:27;99719.25;;;12.39;85.16
79707;BME280;69200;53.612;-2.416;2023-05-07T04:01:53;99725.56;;;12.45;84.92
79707;BME280;69200;53.612;-2.416;2023-05-07T04:04:18;99719.31;;;12.44;85.61
79707;BME280;69200;53.612;-2.416;2023-05-07T04:06:44;99719.88;;;12.46;85.62
79707;BME280;69200;53.612;-2.416;2023-05-07T04:09:09;99714.50;;;12.56;84.65
79707;BME280;69200;53.612;-2.416;2023-05-07T04:11:35;99711.91;;;12.40;85.47
79707;BME280;69200;53.612;-2.416;2023-05-07T04:14:01;99713.06;;;12.49;85.61
79707;BME280;69200;53.612;-2.416;2023-05-07T04:16:26;99714.31;;;12.36;85.73
79707;BME280;69200;53.612;-2.416;2023-05-07T04:18:52;99715.25;;;12.25;86.52
79707;BME280;69200;53.612;-2.416;2023-05-07T04:21:18;99717.03;;;12.36;86.50
79707;BME280;69200;53.612;-2.416;2023-05-07T04:23:46;99716.22;;;12.36;86.09
79707;BME280;69200;53.612;-2.416;2023-05-07T04:26:12;99706.66;;;12.33;85.97
79707;BME280;69200;53.612;-2.416;2023-05-07T04:28:38;99710.31;;;12.71;84.88
79707;BME280;69200;53.612;-2.416;2023-05-07T04:31:04;99697.47;;;12.66;84.54
79707;BME280;69200;53.612;-2.416;2023-05-07T04:33:30;99706.09;;;12.58;84.94
79707;BME280;69200;53.612;-2.416;2023-05-07T04:35:56;99698.38;;;12.50;85.44
79707;BME280;69200;53.612;-2.416;2023-05-07T04:38:21;99707.91;;;12.25;85.83
79707;BME280;69200;53.612;-2.416;2023-05-07T04:40:48;99699.03;;;12.08;86.17
79707;BME280;69200;53.612;-2.416;2023-05-07T04:43:14;99702.38;;;11.93;86.73
79707;BME280;69200;53.612;-2.416;2023-05-07T04:45:39;99711.22;;;11.84;87.22
79707;BME280;69200;53.612;-2.416;2023-05-07T04:48:06;99708.78;;;11.65;87.82
79707;BME280;69200;53.612;-2.416;2023-05-07T04:50:32;99712.16;;;11.72;87.82
79707;BME280;69200;53.612;-2.416;2023-05-07T04:52:58;99711.88;;;11.74;87.29
79707;BME280;69200;53.612;-2.416;2023-05-07T04:55:23;99709.59;;;11.83;87.82
79707;BME280;69200;53.612;-2.416;2023-05-07T04:57:48;99713.84;;;11.78;88.03
79707;BME280;69200;53.612;-2.416;2023-05-07T05:00:14;99712.31;;;11.83;86.97
79707;BME280;69200;53.612;-2.416;2023-05-07T05:02:40;99708.59;;;11.72;87.94
79707;BME280;69200;53.612;-2.416;2023-05-07T05:05:06;99707.16;;;11.64;88.35
79707;BME280;69200;53.612;-2.416;2023-05-07T05:07:32;99714.03;;;11.72;87.69
79707;BME280;69200;53.612;-2.416;2023-05-07T05:09:58;99715.53;;;11.63;87.78
79707;BME280;69200;53.612;-2.416;2023-05-07T05:12:23;99721.28;;;11.66;87.77
79707;BME280;69200;53.612;-2.416;2023-05-07T05:14:48;99725.75;;;11.72;87.96
79707;BME280;69200;53.612;-2.416;2023-05-07T05:17:14;99724.13;;;11.93;86.75
79707;BME280;69200;53.612;-2.416;2023-05-07T05:19:39;99738.22;;;11.90;87.00
79707;BME280;69200;53.612;-2.416;2023-05-07T05:22:05;99739.13;;;11.96;86.20
79707;BME280;69200;53.612;-2.416;2023-05-07T05:24:31;99743.53;;;11.80;87.14
79707;BME280;69200;53.612;-2.416;2023-05-07T05:26:56;99746.72;;;11.77;87.23
79707;BME280;69200;53.612;-2.416;2023-05-07T05:29:22;99748.78;;;11.70;87.10
79707;BME280;69200;53.612;-2.416;2023-05-07T05:31:47;99755.06;;;11.87;86.98
79707;BME280;69200;53.612;-2.416;2023-05-07T05:34:13;99755.13;;;11.75;86.96
79707;BME280;69200;53.612;-2.416;2023-05-07T05:36:38;99766.72;;;11.71;87.45
79707;BME280;69200;53.612;-2.416;2023-05-07T05:39:04;99765.16;;;11.92;86.59
79707;BME280;69200;53.612;-2.416;2023-05-07T05:41:29;99774.84;;;11.83;86.41
79707;BME280;69200;53.612;-2.416;2023-05-07T05:43:55;99769.34;;;11.99;85.44
79707;BME280;69200;53.612;-2.416;2023-05-07T05:46:21;99768.84;;;12.02;85.04
79707;BME280;69200;53.612;-2.416;2023-05-07T05:48:46;99774.09;;;12.09;84.07
79707;BME280;69200;53.612;-2.416;2023-05-07T05:51:11;99771.38;;;12.09;84.44
79707;BME280;69200;53.612;-2.416;2023-05-07T05:53:37;99780.50;;;11.98;84.04
79707;BME280;69200;53.612;-2.416;2023-05-07T05:56:02;99781.81;;;11.95;84.57
79707;BME280;69200;53.612;-2.416;2023-05-07T05:58:28;99788.94;;;12.01;83.55
79707;BME280;69200;53.612;-2.416;2023-05-07T06:00:53;99787.38;;;12.06;83.87
79707;BME280;69200;53.612;-2.416;2023-05-07T06:03:19;99779.22;;;12.06;83.23
79707;BME280;69200;53.612;-2.416;2023-05-07T06:05:45;99780.94;;;12.12;82.85
79707;BME280;69200;53.612;-2.416;2023-05-07T06:08:10;99784.94;;;12.04;83.31
79707;BME280;69200;53.612;-2.416;2023-05-07T06:10:37;99784.63;;;12.22;83.02
79707;BME280;69200;53.612;-2.416;2023-05-07T06:13:02;99784.47;;;12.34;81.93
79707;BME280;69200;53.612;-2.416;2023-05-07T06:15:27;99789.34;;;12.54;80.94
79707;BME280;69200;53.612;-2.416;2023-05-07T06:17:53;99788.16;;;12.99;78.84
79707;BME280;69200;53.612;-2.416;2023-05-07T06:20:20;99802.00;;;13.19;78.09
79707;BME280;69200;53.612;-2.416;2023-05-07T06:22:46;99805.44;;;13.36;76.82
79707;BME280;69200;53.612;-2.416;2023-05-07T06:25:11;99809.66;;;13.54;75.92
79707;BME280;69200;53.612;-2.416;2023-05-07T06:27:37;99815.53;;;13.36;75.58
79707;BME280;69200;53.612;-2.416;2023-05-07T06:30:02;99823.09;;;13.29;75.89
79707;BME280;69200;53.612;-2.416;2023-05-07T06:32:28;99824.13;;;13.92;74.75
79707;BME280;69200;53.612;-2.416;2023-05-07T06:34:53;99821.78;;;14.11;72.94
79707;BME280;69200;53.612;-2.416;2023-05-07T06:37:18;99825.19;;;13.86;73.07
79707;BME280;69200;53.612;-2.416;2023-05-07T06:39:44;99819.06;;;13.36;74.74
79707;BME280;69200;53.612;-2.416;2023-05-07T06:42:09;99819.38;;;14.19;72.02
79707;BME280;69200;53.612;-2.416;2023-05-07T06:44:34;99828.78;;;15.42;67.76
79707;BME280;69200;53.612;-2.416;2023-05-07T06:47:00;99838.03;;;16.22;64.39
79707;BME280;69200;53.612;-2.416;2023-05-07T06:49:25;99827.66;;;16.84;62.31
79707;BME280;69200;53.612;-2.416;2023-05-07T06:51:51;99843.75;;;17.40;60.76
79707;BME280;69200;53.612;-2.416;2023-05-07T06:54:16;99844.84;;;17.44;59.83
79707;BME280;69200;53.612;-2.416;2023-05-07T06:56:42;99847.78;;;17.53;58.49
79707;BME280;69200;53.612;-2.416;2023-05-07T06:59:07;99849.81;;;17.76;58.85
79707;BME280;69200;53.612;-2.416;2023-05-07T07:01:33;99850.59;;;17.82;58.17
79707;BME280;69200;53.612;-2.416;2023-05-07T07:03:58;99838.63;;;18.26;57.31
79707;BME280;69200;53.612;-2.416;2023-05-07T07:06:23;99841.44;;;18.44;56.35
79707;BME280;69200;53.612;-2.416;2023-05-07T07:08:49;99854.66;;;18.42;56.45
79707;BME280;69200;53.612;-2.416;2023-05-07T07:11:14;99852.34;;;18.79;54.72
79707;BME280;69200;53.612;-2.416;2023-05-07T07:13:40;99850.25;;;18.89;54.23
79707;BME280;69200;53.612;-2.416;2023-05-07T07:16:06;99856.56;;;19.09;53.62
79707;BME280;69200;53.612;-2.416;2023-05-07T07:18:31;99854.06;;;19.12;54.47
79707;BME280;69200;53.612;-2.416;2023-05-07T07:20:57;99854.13;;;19.07;54.86
79707;BME280;69200;53.612;-2.416;2023-05-07T07:23:23;99858.00;;;19.63;53.33
79707;BME280;69200;53.612;-2.416;2023-05-07T07:25:48;99862.94;;;19.79;53.48
79707;BME280;69200;53.612;-2.416;2023-05-07T07:28:13;99876.25;;;19.91;51.76
79707;BME280;69200;53.612;-2.416;2023-05-07T07:30:39;99881.28;;;20.03;51.90
79707;BME280;69200;53.612;-2.416;2023-05-07T07:33:05;99874.00;;;19.61;52.23
79707;BME280;69200;53.612;-2.416;2023-05-07T07:35:31;99872.06;;;18.33;55.56
79707;BME280;69200;53.612;-2.416;2023-05-07T07:37:56;99863.97;;;17.88;57.34
79707;BME280;69200;53.612;-2.416;2023-05-07T07:40:22;99876.22;;;18.01;57.08
79707;BME280;69200;53.612;-2.416;2023-05-07T07:42:48;99874.25;;;17.78;58.16
79707;BME280;69200;53.612;-2.416;2023-05-07T07:45:13;99871.06;;;17.95;57.31
79707;BME280;69200;53.612;-2.416;2023-05-07T07:47:39;99864.13;;;18.02;56.97
79707;BME280;69200;53.612;-2.416;2023-05-07T07:50:06;99856.56;;;18.71;55.49
79707;BME280;69200;53.612;-2.416;2023-05-07T07:52:31;99859.78;;;18.49;56.04
79707;BME280;69200;53.612;-2.416;2023-05-07T07:54:56;99870.44;;;17.74;57.62
79707;BME280;69200;53.612;-2.416;2023-05-07T07:57:22;99874.38;;;17.18;58.68
79707;BME280;69200;53.612;-2.416;2023-05-07T07:59:47;99877.56;;;17.75;58.87
79707;BME280;69200;53.612;-2.416;2023-05-07T08:02:13;99879.38;;;17.89;57.27
79707;BME280;69200;53.612;-2.416;2023-05-07T08:04:38;99883.66;;;18.30;55.35
79707;BME280;69200;53.612;-2.416;2023-05-07T08:07:03;99884.47;;;18.30;55.82
79707;BME280;69200;53.612;-2.416;2023-05-07T08:09:29;99890.19;;;17.76;56.74
79707;BME280;69200;53.612;-2.416;2023-05-07T08:11:54;99897.97;;;17.58;57.86
79707;BME280;69200;53.612;-2.416;2023-05-07T08:14:20;99898.31;;;17.02;59.84
79707;BME280;69200;53.612;-2.416;2023-05-07T08:16:45;99901.66;;;16.84;59.22
79707;BME280;69200;53.612;-2.416;2023-05-07T08:19:10;99906.69;;;16.51;61.45
79707;BME280;69200;53.612;-2.416;2023-05-07T08:21:38;99901.19;;;16.57;60.79
79707;BME280;69200;53.612;-2.416;2023-05-07T08:24:04;99904.97;;;16.86;59.39
79707;BME280;69200;53.612;-2.416;2023-05-07T08:26:30;99913.50;;;16.74;59.76
79707;BME280;69200;53.612;-2.416;2023-05-07T08:28:55;99913.59;;;16.23;60.85
79707;BME280;69200;53.612;-2.416;2023-05-07T08:31:20;99908.44;;;15.91;63.15
79707;BME280;69200;53.612;-2.416;2023-05-07T08:33:46;99915.81;;;15.96;62.53
79707;BME280;69200;53.612;-2.416;2023-05-07T08:36:11;99920.47;;;16.21;62.21
79707;BME280;69200;53.612;-2.416;2023-05-07T08:38:36;99923.47;;;16.30;61.50
79707;BME280;69200;53.612;-2.416;2023-05-07T08:41:02;99919.63;;;16.31;62.37
79707;BME280;69200;53.612;-2.416;2023-05-07T08:43:28;99925.34;;;16.39;62.07
79707;BME280;69200;53.612;-2.416;2023-05-07T08:45:54;99926.19;;;16.30;60.78
79707;BME280;69200;53.612;-2.416;2023-05-07T08:48:22;99931.94;;;16.18;62.39
79707;BME280;69200;53.612;-2.416;2023-05-07T08:50:50;99922.38;;;16.20;62.21
79707;BME280;69200;53.612;-2.416;2023-05-07T08:53:16;99925.34;;;16.34;61.96
79707;BME280;69200;53.612;-2.416;2023-05-07T08:55:42;99924.16;;;16.81;61.83
79707;BME280;69200;53.612;-2.416;2023-05-07T08:58:08;99918.97;;;16.85;60.37
79707;BME280;69200;53.612;-2.416;2023-05-07T09:00:35;99924.72;;;16.68;60.19
79707;BME280;69200;53.612;-2.416;2023-05-07T09:03:01;99937.06;;;16.75;60.59
79707;BME280;69200;53.612;-2.416;2023-05-07T09:05:27;99933.66;;;17.04;58.99
79707;BME280;69200;53.612;-2.416;2023-05-07T09:07:52;99936.06;;;17.21;59.64
79707;BME280;69200;53.612;-2.416;2023-05-07T09:10:17;99934.91;;;17.76;57.73
79707;BME280;69200;53.612;-2.416;2023-05-07T09:12:43;99931.09;;;17.28;57.73
79707;BME280;69200;53.612;-2.416;2023-05-07T09:15:09;99930.69;;;17.00;60.59
79707;BME280;69200;53.612;-2.416;2023-05-07T09:17:34;99932.09;;;16.93;59.94
79707;BME280;69200;53.612;-2.416;2023-05-07T09:20:03;99941.47;;;16.76;61.02
79707;BME280;69200;53.612;-2.416;2023-05-07T09:22:36;99930.50;;;16.71;60.64
79707;BME280;69200;53.612;-2.416;2023-05-07T09:25:02;99929.59;;;16.96;60.88
79707;BME280;69200;53.612;-2.416;2023-05-07T09:27:27;99928.72;;;17.11;59.62
79707;BME280;69200;53.612;-2.416;2023-05-07T09:29:53;99931.56;;;16.81;59.99
79707;BME280;69200;53.612;-2.416;2023-05-07T09:32:18;99938.97;;;16.80;60.69
79707;BME280;69200;53.612;-2.416;2023-05-07T09:34:44;99931.47;;;17.06;59.57
79707;BME280;69200;53.612;-2.416;2023-05-07T09:37:12;99940.81;;;17.00;58.96
79707;BME280;69200;53.612;-2.416;2023-05-07T09:39:48;99941.06;;;17.09;60.20
79707;BME280;69200;53.612;-2.416;2023-05-07T09:42:14;99944.56;;;17.69;58.05
79707;BME280;69200;53.612;-2.416;2023-05-07T09:44:40;99947.09;;;18.28;56.79
79707;BME280;69200;53.612;-2.416;2023-05-07T09:47:06;99950.19;;;17.87;56.34
79707;BME280;69200;53.612;-2.416;2023-05-07T09:49:38;99957.94;;;17.80;58.33
79707;BME280;69200;53.612;-2.416;2023-05-07T09:52:05;99944.84;;;18.06;55.32
79707;BME280;69200;53.612;-2.416;2023-05-07T09:54:35;99959.09;;;17.74;57.98
79707;BME280;69200;53.612;-2.416;2023-05-07T09:57:03;99961.09;;;17.53;57.40
79707;BME280;69200;53.612;-2.416;2023-05-07T09:59:33;99965.44;;;17.65;57.79
79707;BME280;69200;53.612;-2.416;2023-05-07T10:02:01;99958.97;;;17.40;57.85
79707;BME280;69200;53.612;-2.416;2023-05-07T10:04:26;99978.28;;;17.20;58.90
79707;BME280;69200;53.612;-2.416;2023-05-07T10:06:52;99969.00;;;17.11;59.09
79707;BME280;69200;53.612;-2.416;2023-05-07T10:09:19;99968.44;;;17.14;58.73
79707;BME280;69200;53.612;-2.416;2023-05-07T10:11:45;99967.13;;;17.01;58.49
79707;BME280;69200;53.612;-2.416;2023-05-07T10:14:10;99963.78;;;17.19;57.99
79707;BME280;69200;53.612;-2.416;2023-05-07T10:16:36;99959.91;;;17.70;55.28
79707;BME280;69200;53.612;-2.416;2023-05-07T10:19:09;99955.69;;;17.43;56.92
79707;BME280;69200;53.612;-2.416;2023-05-07T10:21:39;99961.84;;;17.74;56.83
79707;BME280;69200;53.612;-2.416;2023-05-07T10:24:27;99963.22;;;17.67;57.11
79707;BME280;69200;53.612;-2.416;2023-05-07T10:26:55;99957.53;;;17.58;56.67
79707;BME280;69200;53.612;-2.416;2023-05-07T10:29:32;99977.75;;;18.11;56.50
79707;BME280;69200;53.612;-2.416;2023-05-07T10:32:14;99974.81;;;18.37;56.67
79707;BME280;69200;53.612;-2.416;2023-05-07T10:34:47;99980.69;;;18.54;54.47
79707;BME280;69200;53.612;-2.416;2023-05-07T10:37:14;99984.13;;;18.36;55.81
79707;BME280;69200;53.612;-2.416;2023-05-07T10:39:40;99978.78;;;18.50;55.08
79707;BME280;69200;53.612;-2.416;2023-05-07T10:42:13;99970.25;;;18.51;54.52
79707;BME280;69200;53.612;-2.416;2023-05-07T10:44:39;99965.38;;;18.14;55.88
79707;BME280;69200;53.612;-2.416;2023-05-07T10:47:13;99983.22;;;17.77;57.43
79707;BME280;69200;53.612;-2.416;2023-05-07T10:52:17;99960.19;;;18.94;55.45
79707;BME280;69200;53.612;-2.416;2023-05-07T10:54:44;99967.47;;;19.28;53.95
79707;BME280;69200;53.612;-2.416;2023-05-07T10:59:57;99979.28;;;18.57;54.85
79707;BME280;69200;53.612;-2.416;2023-05-07T11:02:22;99979.59;;;18.50;54.14
79707;BME280;69200;53.612;-2.416;2023-05-07T11:05:18;99975.50;;;18.18;55.32
79707;BME280;69200;53.612;-2.416;2023-05-07T11:07:54;99980.56;;;18.35;55.48
79707;BME280;69200;53.612;-2.416;2023-05-07T11:10:20;99975.34;;;18.05;56.29
79707;BME280;69200;53.612;-2.416;2023-05-07T11:12:47;99985.38;;;18.20;56.46
79707;BME280;69200;53.612;-2.416;2023-05-07T11:15:13;99991.66;;;18.25;56.12
79707;BME280;69200;53.612;-2.416;2023-05-07T11:17:53;99982.78;;;18.33;56.27
79707;BME280;69200;53.612;-2.416;2023-05-07T11:20:19;99986.31;;;18.39;55.24
79707;BME280;69200;53.612;-2.416;2023-05-07T11:22:46;99990.06;;;18.48;55.45
79707;BME280;69200;53.612;-2.416;2023-05-07T11:25:17;99988.06;;;18.30;56.18
79707;BME280;69200;53.612;-2.416;2023-05-07T11:27:43;99979.78;;;18.88;54.58
79707;BME280;69200;53.612;-2.416;2023-05-07T11:30:10;99984.81;;;19.28;53.99
79707;BME280;69200;53.612;-2.416;2023-05-07T11:32:35;99974.13;;;19.46;52.91
79707;BME280;69200;53.612;-2.416;2023-05-07T11:35:01;99972.75;;;19.67;52.99
79707;BME280;69200;53.612;-2.416;2023-05-07T11:37:27;99983.59;;;19.96;51.18
79707;BME280;69200;53.612;-2.416;2023-05-07T11:40:21;99980.13;;;20.23;51.05
79707;BME280;69200;53.612;-2.416;2023-05-07T11:42:46;99984.34;;;20.02;50.62
79707;BME280;69200;53.612;-2.416;2023-05-07T11:45:23;99983.03;;;20.64;49.51
79707;BME280;69200;53.612;-2.416;2023-05-07T11:47:50;99981.91;;;20.93;48.39
79707;BME280;69200;53.612;-2.416;2023-05-07T11:50:15;99982.91;;;20.56;49.40
79707;BME280;69200;53.612;-2.416;2023-05-07T11:52:50;99984.03;;;20.55;49.40
79707;BME280;69200;53.612;-2.416;2023-05-07T11:55:18;99975.81;;;20.17;49.99
79707;BME280;69200;53.612;-2.416;2023-05-07T11:57:44;99988.59;;;19.75;51.90
79707;BME280;69200;53.612;-2.416;2023-05-07T12:00:10;99983.34;;;20.11;50.79
79707;BME280;69200;53.612;-2.416;2023-05-07T12:02:35;99992.88;;;20.19;50.15
79707;BME280;69200;53.612;-2.416;2023-05-07T12:05:01;99988.41;;;20.04;48.72
79707;BME280;69200;53.612;-2.416;2023-05-07T12:07:27;99995.63;;;19.44;51.05
79707;BME280;69200;53.612;-2.416;2023-05-07T12:09:53;100007.63;;;19.29;52.61
79707;BME280;69200;53.612;-2.416;2023-05-07T12:12:18;99995.59;;;19.68;51.01
79707;BME280;69200;53.612;-2.416;2023-05-07T12:14:45;99996.34;;;19.73;51.27
79707;BME280;69200;53.612;-2.416;2023-05-07T12:17:12;99997.72;;;19.52;51.20
79707;BME280;69200;53.612;-2.416;2023-05-07T12:19:40;99996.34;;;19.73;50.20
79707;BME280;69200;53.612;-2.416;2023-05-07T12:22:09;99988.47;;;19.43;51.38
79707;BME280;69200;53.612;-2.416;2023-05-07T12:24:45;99991.56;;;19.60;49.28
79707;BME280;69200;53.612;-2.416;2023-05-07T12:27:11;99990.31;;;19.47;52.04
79707;BME280;69200;53.612;-2.416;2023-05-07T12:29:36;99996.88;;;20.27;49.36
79707;BME280;69200;53.612;-2.416;2023-05-07T12:32:06;99989.50;;;20.87;48.22
79707;BME280;69200;53.612;-2.416;2023-05-07T12:34:32;99994.69;;;20.43;48.21
79707;BME280;69200;53.612;-2.416;2023-05-07T12:37:01;99994.25;;;20.35;47.97
79707;BME280;69200;53.612;-2.416;2023-05-07T12:39:27;99997.81;;;20.03;48.60
79707;BME280;69200;53.612;-2.416;2023-05-07T12:41:54;99998.25;;;20.10;48.76
79707;BME280;69200;53.612;-2.416;2023-05-07T12:44:25;99991.41;;;20.08;48.54
79707;BME280;69200;53.612;-2.416;2023-05-07T12:46:54;99986.13;;;20.44;48.73
79707;BME280;69200;53.612;-2.416;2023-05-07T12:49:19;99993.78;;;20.80;47.01
79707;BME280;69200;53.612;-2.416;2023-05-07T12:51:47;99987.47;;;20.28;46.43